Main page
Satellite images 15-day forecastsClimateMarine weather Cyclones Lightning AirportsFAQ Newsletter About
Weather : Europe Africa North America South America Asia Australia-Oceania Others
Languages Contact

London-Luton, England

latitude: 51-52N, longitude: 000-22W, elevation: 160 m


METAR: EGGW 222320Z 21005KT CAVOK 10/09 Q1022
TAF: EGGW 222257Z 2300/2324 23008KT 9999 SCT030 TEMPO 2308/2324 6000 -RADZ BKN010 PROB40 TEMPO 2313/2324 4000 RADZ BKN006

Time: 00:51 (23:51 UTC)

Current weather observation

The report was made 31 minutes ago, at 23:20 UTC
Wind 5 kt from the South/Southwest
Temperature 10°C
Humidity 93%
Pressure 1022 hPa
Visibility 10 km or more
no clouds below 1500 m and no cumulonimbus

Change units

Forecast

The report was made 54 minutes ago, at 22:57 UTC
Forecast valid from 23 at 00 UTC to 23 at 24 UTC
Wind 8 kt from the Southwest
Visibility 10 km or more
Scattered clouds at a height of 3000 ft
Temporary
from 23 at 08 UTC to 23 at 24 UTC
Visibility: 6000 m
Broken clouds at a height of 1000 ft
light rain drizzle
Probability 40% :
Temporary
from 23 at 13 UTC to 23 at 24 UTC
Visibility: 4000 m
Broken clouds at a height of 600 ft
rain drizzle
The information on this site is subject to a disclaimer
Weather : Europe Africa North America South America Asia Australia-Oceania Others
Satellite images 15-day forecastsClimateMarine weather Cyclones Lightning AirportsFAQ Languages Contact Newsletter About